Time;durP1;ratioP1;P1;durP2;ratioP2;P2;SDS_P1;SDS_P2;PMS_P1;PMS_P2;Temp;Humidity;BMP_temperature;BMP_pressure;BME280_temperature;BME280_humidity;BME280_pressure;Samples;Min_cycle;Max_cycle;Signal;HPM_P1;HPM_P2
2022/11/17 02:04:15;;;;;;;51.47;26.42;;;16.40;64.70;;;;;;5036691;28;20187;-94
2022/11/17 02:06:46;;;;;;;48.22;27.60;;;16.60;64.70;;;;;;5020172;28;20029;-95
2022/11/17 02:09:19;;;;;;;47.20;27.77;;;16.60;64.80;;;;;;5021523;28;20026;-91
2022/11/17 02:12:04;;;;;;;48.92;27.63;;;16.40;64.60;;;;;;5036461;28;20037;-92
2022/11/17 02:14:49;;;;;;;47.30;26.63;;;16.10;65.60;;;;;;5045033;28;20029;-88
2022/11/17 02:17:39;;;;;;;48.08;27.35;;;16.20;65.50;;;;;;5032233;28;20178;-89
2022/11/17 02:20:08;;;;;;;47.83;26.00;;;16.50;64.90;;;;;;5031085;28;20034;-91
2022/11/17 02:22:42;;;;;;;49.67;27.63;;;16.60;65.00;;;;;;5038093;28;20032;-89
2022/11/17 02:25:14;;;;;;;47.05;27.30;;;16.40;64.70;;;;;;5035245;28;20055;-90
2022/11/17 02:28:05;;;;;;;41.30;24.65;;;16.40;64.90;;;;;;5030393;28;20024;-90
2022/11/17 02:31:17;;;;;;;50.05;27.25;;;16.30;65.00;;;;;;5039280;28;20036;-89
2022/11/17 02:34:20;;;;;;;44.72;25.40;;;16.30;65.10;;;;;;5035619;28;20068;-88
2022/11/17 02:37:08;;;;;;;46.15;26.52;;;16.20;65.30;;;;;;5035814;28;20071;-93
2022/11/17 02:39:47;;;;;;;42.95;26.23;;;16.30;65.60;;;;;;5026021;28;20082;-93
2022/11/17 02:45:36;;;;;;;45.30;26.52;;;15.60;66.40;;;;;;5015355;28;20126;-90
2022/11/17 02:48:11;;;;;;;44.60;26.42;;;15.70;66.70;;;;;;4998541;28;20108;-92
2022/11/17 02:50:39;;;;;;;47.90;26.88;;;15.80;66.00;;;;;;4995041;28;20038;-84
2022/11/17 02:53:05;;;;;;;43.97;26.38;;;15.90;65.40;;;;;;4986740;28;20542;-87
2022/11/17 02:55:34;;;;;;;47.97;27.20;;;15.80;66.20;;;;;;4997275;28;20038;-85
2022/11/17 02:58:00;;;;;;;46.15;25.60;;;15.80;65.20;;;;;;4997538;28;20464;-86
2022/11/17 03:00:27;;;;;;;44.28;24.60;;;15.60;66.90;;;;;;4997482;28;20041;-88
2022/11/17 03:03:29;;;;;;;44.70;25.73;;;15.80;66.40;;;;;;4993622;28;20054;-86
2022/11/17 03:05:58;;;;;;;44.90;25.23;;;16.00;65.20;;;;;;4987081;28;20088;-92
2022/11/17 03:09:09;;;;;;;46.95;26.48;;;16.00;65.50;;;;;;4997056;28;20125;-89
2022/11/17 03:11:48;;;;;;;46.42;25.35;;;16.10;65.40;;;;;;5010110;28;20112;-89
2022/11/17 03:14:35;;;;;;;46.28;25.70;;;16.10;64.80;;;;;;4993736;28;20229;-88
2022/11/17 03:17:25;;;;;;;43.67;24.92;;;16.30;64.50;;;;;;4978011;28;20424;-90
2022/11/17 03:20:05;;;;;;;47.17;25.70;;;16.40;64.50;;;;;;4995293;28;20452;-87
2022/11/17 03:22:42;;;;;;;47.50;26.17;;;16.50;63.70;;;;;;5030505;28;20059;-91
2022/11/17 03:25:21;;;;;;;45.47;25.35;;;16.50;64.20;;;;;;5023997;28;20036;-88
2022/11/17 03:27:52;;;;;;;48.10;26.00;;;16.70;63.40;;;;;;5021274;28;20021;-88
2022/11/17 03:30:21;;;;;;;42.92;24.48;;;16.80;62.90;;;;;;5028085;28;20458;-90
2022/11/17 03:32:52;;;;;;;46.33;25.35;;;16.70;63.60;;;;;;5033668;28;20025;-88
2022/11/17 03:35:26;;;;;;;41.58;24.23;;;16.50;63.50;;;;;;5033581;28;20045;-86
2022/11/17 03:37:57;;;;;;;42.17;24.58;;;16.40;64.00;;;;;;5022092;28;20408;-94
2022/11/17 03:40:29;;;;;;;46.60;25.52;;;15.90;64.90;;;;;;5019231;28;20124;-88
2022/11/17 03:43:08;;;;;;;43.05;25.05;;;15.60;65.60;;;;;;5018809;28;20041;-88
2022/11/17 03:45:38;;;;;;;46.45;25.48;;;15.30;66.50;;;;;;5024395;28;20032;-90
2022/11/17 03:48:23;;;;;;;44.20;25.38;;;15.50;65.60;;;;;;5019867;28;20046;-90
2022/11/17 03:51:03;;;;;;;42.58;23.75;;;15.30;66.60;;;;;;5027867;28;20035;-90
2022/11/17 03:53:29;;;;;;;45.50;25.20;;;15.40;66.70;;;;;;5035184;28;20059;-88
2022/11/17 03:56:24;;;;;;;43.35;23.70;;;15.50;66.30;;;;;;5017787;28;20033;-92
2022/11/17 03:59:32;;;;;;;44.03;24.33;;;15.70;66.20;;;;;;5016921;28;20033;-92
2022/11/17 04:01:58;;;;;;;41.05;24.25;;;15.90;65.30;;;;;;5034624;28;20386;-92
2022/11/17 04:05:04;;;;;;;39.47;23.70;;;15.90;64.80;;;;;;5009068;28;20057;-91
2022/11/17 04:07:13;;;;;;;41.25;24.02;;;15.90;65.10;;;;;;5016337;28;20457;-86
2022/11/17 04:09:38;;;;;;;43.70;23.55;;;15.90;65.20;;;;;;5015120;28;20501;-93
2022/11/17 04:17:40;;;;;;;41.92;23.75;;;16.40;64.00;;;;;;5014365;28;20033;-88
2022/11/17 04:20:06;;;;;;;47.55;25.17;;;16.20;64.10;;;;;;4997272;28;20034;-86
2022/11/17 04:22:32;;;;;;;40.90;23.55;;;16.30;64.30;;;;;;4996563;28;20026;-89
2022/11/17 04:24:58;;;;;;;45.72;25.23;;;16.30;64.00;;;;;;4996649;28;20037;-89
2022/11/17 04:30:14;;;;;;;;;;;16.00;64.80;;;;;;5049094;28;20071;-82
2022/11/17 04:32:40;;;;;;;48.65;24.30;;;16.10;64.40;;;;;;5036077;28;20003;-90
2022/11/17 04:35:06;;;;;;;41.95;24.50;;;16.00;65.10;;;;;;5036589;28;20032;-90
2022/11/17 04:37:32;;;;;;;47.00;25.52;;;16.00;64.70;;;;;;5038257;28;20017;-95
2022/11/17 04:39:57;;;;;;;52.42;26.63;;;16.00;64.70;;;;;;5036475;28;20028;-89
2022/11/17 04:42:23;;;;;;;47.33;26.15;;;16.10;65.10;;;;;;5012830;28;20032;-90
2022/11/17 04:44:49;;;;;;;50.20;26.45;;;16.30;64.30;;;;;;4998347;28;20164;-94
2022/11/17 04:47:14;;;;;;;48.08;24.77;;;16.30;64.40;;;;;;5014876;28;20121;-93
2022/11/17 04:49:40;;;;;;;47.55;26.25;;;16.50;63.90;;;;;;5017269;28;20485;-89
2022/11/17 04:52:06;;;;;;;42.78;24.55;;;16.40;63.50;;;;;;5020517;28;20064;-92
2022/11/17 04:54:32;;;;;;;50.22;24.00;;;16.30;63.80;;;;;;5018971;28;20053;-85
2022/11/17 04:56:58;;;;;;;46.47;25.23;;;16.30;63.80;;;;;;5000626;28;20057;-88
2022/11/17 04:59:23;;;;;;;53.05;27.85;;;16.20;64.10;;;;;;5017040;28;20084;-88
2022/11/17 05:01:50;;;;;;;51.95;27.98;;;16.20;63.90;;;;;;5007060;28;20546;-92
2022/11/17 05:07:02;;;;;;;52.05;26.30;;;16.50;63.50;;;;;;5057785;28;20028;-92
2022/11/17 05:09:28;;;;;;;54.08;27.23;;;16.60;63.20;;;;;;5049997;28;20030;-92
2022/11/17 05:14:38;;;;;;;48.67;25.63;;;16.30;63.90;;;;;;5041017;28;20041;-87
2022/11/17 05:17:04;;;;;;;47.95;25.00;;;15.80;64.90;;;;;;5049691;28;20029;-92
2022/11/17 05:19:36;;;;;;;48.05;25.83;;;15.80;65.60;;;;;;5057555;28;20032;-93
2022/11/17 05:22:02;;;;;;;61.20;30.83;;;15.60;65.60;;;;;;5053505;28;20064;-89
2022/11/17 05:24:30;;;;;;;53.88;28.35;;;15.60;65.90;;;;;;5036275;28;20041;-85
2022/11/17 05:26:56;;;;;;;48.55;25.38;;;15.90;64.80;;;;;;5040789;28;20028;-91
2022/11/17 05:29:22;;;;;;;46.53;25.83;;;16.00;64.60;;;;;;5046349;28;20033;-85
2022/11/17 05:31:48;;;;;;;48.70;26.50;;;16.10;64.40;;;;;;5038567;28;20040;-91
2022/11/17 05:34:19;;;;;;;52.55;27.90;;;16.10;64.50;;;;;;5055445;28;20029;-86
2022/11/17 05:36:45;;;;;;;51.72;29.02;;;16.30;64.10;;;;;;5065691;28;20029;-92
2022/11/17 05:39:12;;;;;;;52.72;28.95;;;16.10;64.10;;;;;;5035514;28;20032;-90
2022/11/17 05:41:38;;;;;;;50.08;26.27;;;16.10;64.70;;;;;;5037308;28;20030;-88
2022/11/17 05:44:09;;;;;;;55.50;27.67;;;16.50;63.50;;;;;;5036285;28;20033;-91
2022/11/17 05:46:35;;;;;;;46.70;25.42;;;16.50;63.90;;;;;;5036124;28;20030;-92
2022/11/17 05:49:00;;;;;;;46.65;26.85;;;16.40;64.00;;;;;;4686815;28;9999744;-89
2022/11/17 05:51:26;;;;;;;51.38;26.42;;;16.50;63.50;;;;;;5036373;28;20052;-87
2022/11/17 05:53:52;;;;;;;48.03;26.23;;;16.60;63.10;;;;;;5035645;28;20492;-88
2022/11/17 05:56:20;;;;;;;49.92;25.05;;;16.40;63.00;;;;;;5035623;28;20038;-88
2022/11/17 05:58:51;;;;;;;46.78;26.13;;;16.50;63.20;;;;;;5036092;28;20026;-88
2022/11/17 06:01:20;;;;;;;;;;;16.50;63.10;;;;;;5036010;28;20385;-93
2022/11/17 06:03:58;;;;;;;43.85;23.63;;;16.30;63.40;;;;;;5034498;28;20413;-87
2022/11/17 06:06:24;;;;;;;50.00;26.40;;;16.50;63.70;;;;;;5051660;28;20406;-90
2022/11/17 06:08:50;;;;;;;46.83;26.10;;;16.50;63.60;;;;;;5056730;28;20028;-91
2022/11/17 06:11:35;;;;;;;47.40;25.00;;;16.60;63.30;;;;;;5052152;28;20091;-90
2022/11/17 06:14:20;;;;;;;47.08;24.70;;;16.50;63.30;;;;;;5057990;28;20055;-92
2022/11/17 06:17:52;;;;;;;;;;;;;;;;;;;;;
2022/11/17 06:20:20;;;;;;;42.60;24.80;;;16.70;62.80;;;;;;5034940;28;20046;-88
2022/11/17 06:22:54;;;;;;;45.05;24.40;;;16.70;62.90;;;;;;5039803;28;20427;-91
2022/11/17 06:25:20;;;;;;;44.17;24.90;;;16.50;63.20;;;;;;5050684;28;20029;-88
2022/11/17 06:27:47;;;;;;;40.88;24.40;;;16.60;63.30;;;;;;5051751;28;20075;-85
2022/11/17 06:30:16;;;;;;;42.30;23.75;;;16.40;63.40;;;;;;5055588;28;20029;-89
2022/11/17 06:32:44;;;;;;;42.75;23.95;;;16.30;64.10;;;;;;5039135;28;20029;-88
2022/11/17 06:35:15;;;;;;;40.03;22.88;;;16.40;63.60;;;;;;5060432;28;20021;-90
2022/11/17 06:37:43;;;;;;;39.72;23.20;;;16.60;63.30;;;;;;5040535;28;20051;-92
2022/11/17 06:40:10;;;;;;;40.53;22.98;;;16.70;63.20;;;;;;5041584;28;20032;-88
2022/11/17 06:45:23;;;;;;;41.67;21.70;;;16.70;62.70;;;;;;5056749;28;20032;-87
2022/11/17 06:47:51;;;;;;;41.53;23.58;;;16.60;62.90;;;;;;5038590;28;20029;-88
2022/11/17 06:50:21;;;;;;;37.15;21.98;;;16.40;63.30;;;;;;5039315;28;20024;-89
2022/11/17 06:52:47;;;;;;;39.72;22.73;;;16.40;63.60;;;;;;5052080;28;20481;-88
2022/11/17 06:55:13;;;;;;;40.03;24.02;;;16.50;63.20;;;;;;5057398;28;20033;-85
2022/11/17 06:57:38;;;;;;;38.25;23.02;;;16.40;63.00;;;;;;5056212;28;20115;-85
2022/11/17 07:00:05;;;;;;;41.00;22.55;;;16.20;63.40;;;;;;5040407;28;20025;-89
2022/11/17 07:02:31;;;;;;;39.72;23.25;;;16.00;64.10;;;;;;5057963;28;20053;-84
2022/11/17 07:04:57;;;;;;;37.90;22.30;;;16.10;64.10;;;;;;5047928;28;20084;-88
2022/11/17 07:07:23;;;;;;;44.65;23.58;;;15.80;64.30;;;;;;5051354;28;20560;-87
2022/11/17 07:09:49;;;;;;;41.17;23.10;;;15.80;64.50;;;;;;5050383;28;20052;-85
2022/11/17 07:12:15;;;;;;;43.30;23.52;;;15.80;64.60;;;;;;5034936;28;20363;-84
2022/11/17 07:14:41;;;;;;;42.45;22.77;;;15.80;65.00;;;;;;5033822;28;20029;-87
2022/11/17 07:17:07;;;;;;;40.33;23.13;;;16.30;64.70;;;;;;5034258;28;20056;-86
2022/11/17 07:19:32;;;;;;;37.40;22.05;;;16.40;64.00;;;;;;5035472;28;20106;-87
2022/11/17 07:21:58;;;;;;;40.67;22.70;;;16.60;63.40;;;;;;5049191;28;20028;-92
2022/11/17 07:24:24;;;;;;;38.83;22.23;;;16.80;62.90;;;;;;5048340;28;20087;-87
2022/11/17 07:26:49;;;;;;;42.38;24.13;;;16.90;62.40;;;;;;5052789;28;20020;-88
2022/11/17 07:29:15;;;;;;;36.75;21.98;;;16.90;62.30;;;;;;5054285;28;20492;-88
2022/11/17 07:31:42;;;;;;;37.60;22.40;;;16.90;62.80;;;;;;5055459;28;20036;-85
2022/11/17 07:34:08;;;;;;;37.67;22.92;;;16.60;62.50;;;;;;5056651;28;20468;-86
2022/11/17 07:36:58;;;;;;;40.80;22.42;;;16.70;62.70;;;;;;5049921;28;20044;-88
2022/11/17 07:39:24;;;;;;;38.90;22.40;;;16.90;62.40;;;;;;5045406;28;20107;-87
2022/11/17 07:41:50;;;;;;;38.60;21.33;;;17.00;62.50;;;;;;5049967;28;20116;-85
2022/11/17 07:44:15;;;;;;;34.85;21.75;;;17.10;61.20;;;;;;5043924;28;20503;-93
2022/11/17 07:46:41;;;;;;;37.90;23.10;;;16.60;62.00;;;;;;5063748;28;20060;-95
2022/11/17 07:49:07;;;;;;;34.92;20.50;;;16.50;63.20;;;;;;5062042;28;20028;-85
2022/11/17 07:51:32;;;;;;;35.55;20.98;;;16.10;63.20;;;;;;5051095;28;20112;-91
2022/11/17 07:53:58;;;;;;;38.65;22.30;;;16.00;64.10;;;;;;5043979;28;20048;-89
2022/11/17 07:56:24;;;;;;;37.28;21.42;;;15.60;65.00;;;;;;5054054;28;20113;-89
2022/11/17 07:58:49;;;;;;;37.08;21.70;;;15.50;65.40;;;;;;5053985;28;20079;-91
2022/11/17 08:01:15;;;;;;;34.75;20.95;;;15.60;65.70;;;;;;5053792;28;20028;-86
2022/11/17 08:03:42;;;;;;;35.75;21.85;;;16.00;65.50;;;;;;5054771;28;20045;-82
2022/11/17 08:06:11;;;;;;;34.70;21.02;;;16.30;63.70;;;;;;5053970;28;20373;-86
2022/11/17 08:08:37;;;;;;;37.42;21.90;;;16.50;64.10;;;;;;5056458;28;20028;-83
2022/11/17 08:11:05;;;;;;;36.08;22.23;;;16.50;63.50;;;;;;5052702;28;20021;-85
2022/11/17 08:13:31;;;;;;;33.30;19.92;;;16.20;63.50;;;;;;5052244;28;20037;-89
2022/11/17 08:15:58;;;;;;;31.63;19.33;;;16.00;64.40;;;;;;5058075;28;20027;-92
2022/11/17 08:18:24;;;;;;;31.67;21.02;;;16.30;64.30;;;;;;5053907;28;20028;-88
2022/11/17 08:20:50;;;;;;;34.45;20.75;;;16.60;63.40;;;;;;5053459;28;20040;-83
2022/11/17 08:23:16;;;;;;;32.17;20.63;;;16.60;63.20;;;;;;5054824;28;20036;-88
2022/11/17 08:25:42;;;;;;;30.85;19.83;;;16.80;63.00;;;;;;5055673;28;20021;-86
2022/11/17 08:28:08;;;;;;;31.17;18.80;;;17.10;62.80;;;;;;5053339;28;20040;-84
2022/11/17 08:30:34;;;;;;;31.70;19.80;;;17.00;62.10;;;;;;5055195;28;20032;-90
2022/11/17 08:33:01;;;;;;;30.15;19.13;;;16.80;62.40;;;;;;5057232;28;20496;-93
2022/11/17 08:35:27;;;;;;;27.15;18.80;;;16.60;62.70;;;;;;5056395;28;20028;-85
2022/11/17 08:37:54;;;;;;;33.88;19.38;;;16.60;63.00;;;;;;4353313;28;10000715;-86
2022/11/17 08:40:21;;;;;;;31.67;19.88;;;16.50;63.30;;;;;;5039192;28;20029;-87
2022/11/17 08:42:58;;;;;;;31.17;19.70;;;16.50;62.90;;;;;;5035517;28;20034;-89
2022/11/17 08:45:24;;;;;;;32.30;19.48;;;16.70;63.10;;;;;;5016352;28;20026;-89
2022/11/17 08:47:50;;;;;;;29.15;17.80;;;16.80;62.30;;;;;;5017867;28;20060;-89
2022/11/17 08:50:16;;;;;;;26.33;17.55;;;16.80;63.20;;;;;;5034331;28;20021;-88
2022/11/17 08:52:44;;;;;;;30.40;18.83;;;17.20;62.50;;;;;;5034143;28;20116;-91
2022/11/17 08:55:11;;;;;;;29.08;19.23;;;17.50;61.40;;;;;;5034995;28;20026;-85
2022/11/17 08:57:37;;;;;;;29.95;18.90;;;17.60;60.70;;;;;;5035145;28;20052;-87
2022/11/17 09:00:07;;;;;;;27.23;17.85;;;17.70;61.10;;;;;;5034052;28;20021;-91
2022/11/17 09:02:34;;;;;;;44.20;37.08;;;17.80;60.50;;;;;;5035311;28;20521;-90
2022/11/17 09:05:00;;;;;;;31.10;19.15;;;17.90;60.80;;;;;;5037092;28;20080;-87
2022/11/17 09:07:34;;;;;;;30.05;18.83;;;17.90;61.20;;;;;;5034157;28;20108;-86
2022/11/17 09:10:00;;;;;;;31.67;19.35;;;18.30;60.00;;;;;;5036018;28;20025;-84
2022/11/17 09:12:25;;;;;;;29.00;19.23;;;18.20;59.70;;;;;;5037518;28;20029;-85
2022/11/17 09:14:52;;;;;;;30.27;18.70;;;17.70;60.50;;;;;;5034727;28;20390;-89
2022/11/17 09:17:18;;;;;;;30.67;20.25;;;17.90;60.80;;;;;;5035299;28;20025;-84
2022/11/17 09:19:43;;;;;;;31.05;19.27;;;18.10;59.80;;;;;;5034087;28;20083;-89
2022/11/17 09:22:09;;;;;;;29.98;19.83;;;18.10;60.50;;;;;;5035155;28;20152;-89
2022/11/17 09:24:35;;;;;;;32.67;20.30;;;18.40;59.30;;;;;;5033634;28;20449;-87
2022/11/17 09:27:02;;;;;;;28.73;19.05;;;17.90;59.70;;;;;;5037702;28;20029;-92
2022/11/17 09:29:28;;;;;;;32.67;19.73;;;17.70;60.30;;;;;;5036531;28;20029;-88
2022/11/17 09:31:56;;;;;;;29.20;18.85;;;17.50;61.00;;;;;;5038268;28;20021;-89
2022/11/17 09:34:22;;;;;;;30.40;19.00;;;17.70;61.20;;;;;;5036379;28;20115;-91
2022/11/17 09:36:48;;;;;;;27.73;18.92;;;17.70;60.30;;;;;;5022359;28;20061;-96
2022/11/17 09:39:17;;;;;;;28.35;18.70;;;17.90;60.40;;;;;;5041644;28;20021;-89
2022/11/17 09:41:45;;;;;;;37.58;22.80;;;17.90;60.40;;;;;;5039618;28;20378;-88
2022/11/17 09:44:33;;;;;;;32.25;20.95;;;18.00;60.20;;;;;;5038122;28;20043;-88
2022/11/17 09:47:20;;;;;;;33.03;22.30;;;17.90;59.90;;;;;;5040090;28;20036;-88
2022/11/17 09:49:49;;;;;;;40.45;25.58;;;17.90;59.90;;;;;;5037743;28;20029;-87
2022/11/17 09:52:21;;;;;;;35.10;21.92;;;17.80;60.20;;;;;;5040359;28;20363;-87
2022/11/17 09:54:56;;;;;;;25.33;16.33;;;18.00;60.10;;;;;;5037022;28;20026;-87
2022/11/17 09:57:32;;;;;;;27.98;18.05;;;18.10;59.80;;;;;;5040508;28;20029;-87
2022/11/17 10:00:19;;;;;;;27.45;18.33;;;18.30;59.40;;;;;;5036593;28;20038;-90
2022/11/17 10:02:46;;;;;;;31.60;20.70;;;18.10;59.40;;;;;;5037408;28;20052;-87
2022/11/17 10:05:27;;;;;;;26.55;17.45;;;18.00;59.80;;;;;;5037018;28;20031;-93
2022/11/17 10:07:56;;;;;;;24.85;16.73;;;18.20;60.00;;;;;;5040547;28;20029;-87
2022/11/17 10:10:33;;;;;;;27.83;18.08;;;18.30;59.40;;;;;;5037516;28;20060;-87
2022/11/17 10:13:02;;;;;;;37.60;21.67;;;18.30;58.90;;;;;;5038233;28;20037;-88
2022/11/17 10:15:42;;;;;;;29.85;19.08;;;18.60;59.30;;;;;;5037467;28;20021;-87
2022/11/17 10:18:13;;;;;;;25.33;16.23;;;19.20;57.80;;;;;;5038378;28;20550;-88
2022/11/17 10:20:43;;;;;;;23.75;16.30;;;19.50;57.00;;;;;;5039862;28;20045;-87
2022/11/17 10:23:12;;;;;;;;;;;19.60;56.70;;;;;;5045249;28;20025;-87
2022/11/17 10:25:46;;;;;;;21.10;14.32;;;19.50;57.10;;;;;;5039587;28;19907;-88
2022/11/17 10:28:27;;;;;;;19.40;13.63;;;19.30;56.30;;;;;;5036335;28;20032;-88
2022/11/17 10:30:55;;;;;;;20.20;13.80;;;19.20;57.60;;;;;;5039790;28;20045;-86
2022/11/17 10:33:40;;;;;;;22.92;15.75;;;19.10;56.90;;;;;;5037031;28;20032;-87
2022/11/17 10:36:19;;;;;;;23.00;16.13;;;18.90;58.20;;;;;;5036893;28;20493;-87
2022/11/17 10:38:47;;;;;;;20.77;14.77;;;19.00;57.80;;;;;;5037584;28;20061;-86
2022/11/17 10:41:19;;;;;;;20.88;14.60;;;18.90;57.80;;;;;;5038277;28;20025;-86
2022/11/17 10:44:10;;;;;;;21.27;14.45;;;18.90;57.20;;;;;;5036126;28;20041;-85
2022/11/17 10:46:56;;;;;;;21.15;14.63;;;19.10;57.80;;;;;;5041064;28;20085;-87
2022/11/17 10:49:27;;;;;;;20.77;14.50;;;19.10;56.80;;;;;;5036119;28;20033;-90
2022/11/17 10:52:15;;;;;;;22.30;15.07;;;18.70;57.60;;;;;;5035627;28;20022;-86
2022/11/17 10:54:42;;;;;;;20.83;14.23;;;18.40;58.20;;;;;;5036394;28;20022;-85
2022/11/17 10:57:18;;;;;;;21.77;14.63;;;18.00;58.80;;;;;;5036720;28;20026;-89
2022/11/17 10:59:56;;;;;;;24.60;16.45;;;17.80;59.40;;;;;;5038003;28;20049;-86
2022/11/17 11:02:38;;;;;;;33.35;19.70;;;18.10;60.00;;;;;;5040890;28;20040;-87
2022/11/17 11:05:11;;;;;;;24.42;17.45;;;18.40;58.90;;;;;;5023445;28;20041;-84
2022/11/17 11:07:38;;;;;;;21.88;15.32;;;18.60;58.10;;;;;;5037623;28;20025;-87
2022/11/17 11:10:17;;;;;;;23.83;16.73;;;18.70;58.80;;;;;;5019639;28;20013;-86
2022/11/17 11:12:42;;;;;;;22.05;15.45;;;18.70;58.70;;;;;;5020632;28;20478;-88
2022/11/17 11:15:21;;;;;;;22.33;15.52;;;18.90;58.20;;;;;;5019688;28;20029;-86
2022/11/17 11:17:48;;;;;;;23.92;15.13;;;18.90;58.10;;;;;;5020420;28;20180;-88
2022/11/17 11:20:17;;;;;;;24.00;15.82;;;19.00;58.00;;;;;;5018610;28;20038;-86
2022/11/17 11:22:58;;;;;;;20.45;14.77;;;19.10;57.70;;;;;;5002230;28;20029;-85
2022/11/17 11:25:46;;;;;;;20.88;14.57;;;19.10;57.90;;;;;;5018332;28;20033;-86
2022/11/17 11:28:38;;;;;;;23.05;15.10;;;19.20;57.20;;;;;;5018641;28;20083;-87
2022/11/17 11:31:15;;;;;;;17.80;12.07;;;19.00;57.90;;;;;;5018724;28;20026;-85
2022/11/17 11:33:52;;;;;;;21.23;14.57;;;19.10;57.60;;;;;;5020500;28;20026;-85
2022/11/17 11:36:24;;;;;;;21.33;14.43;;;19.10;57.50;;;;;;5018024;28;20026;-92
2022/11/17 11:38:58;;;;;;;25.48;16.55;;;19.10;57.30;;;;;;5017329;28;20030;-86
2022/11/17 11:41:51;;;;;;;21.98;14.65;;;19.30;57.60;;;;;;5022221;28;20044;-87
2022/11/17 11:44:39;;;;;;;21.35;14.70;;;19.20;57.30;;;;;;5021945;28;20042;-87
2022/11/17 11:47:28;;;;;;;19.23;13.13;;;19.30;57.40;;;;;;5020113;28;20047;-86
2022/11/17 11:50:00;;;;;;;19.47;13.47;;;19.50;56.50;;;;;;5025042;28;20103;-87
2022/11/17 11:52:32;;;;;;;21.75;14.43;;;19.50;57.10;;;;;;5019868;28;20049;-86
2022/11/17 11:55:03;;;;;;;20.75;14.57;;;19.60;57.00;;;;;;5038506;28;20056;-87
2022/11/17 11:57:46;;;;;;;20.95;14.82;;;19.70;57.00;;;;;;5022300;28;20032;-87
2022/11/17 12:00:16;;;;;;;20.42;14.45;;;19.80;56.60;;;;;;5018759;28;20033;-89
2022/11/17 12:03:12;;;;;;;21.13;15.60;;;19.70;56.00;;;;;;5024907;28;20050;-88
2022/11/17 12:06:38;;;;;;;19.63;13.77;;;19.70;56.90;;;;;;5020956;28;20575;-88
2022/11/17 12:08:54;;;;;;;20.45;13.93;;;19.60;56.30;;;;;;5038624;28;20083;-88
2022/11/17 12:14:06;;;;;;;19.45;13.27;;;19.70;57.10;;;;;;5039429;28;20141;-89
2022/11/17 12:16:38;;;;;;;20.92;14.43;;;19.80;57.10;;;;;;5018741;28;20429;-87
2022/11/17 12:19:42;;;;;;;18.70;12.77;;;20.10;56.90;;;;;;5040885;28;20033;-88
2022/11/17 12:22:08;;;;;;;17.27;12.90;;;20.10;55.90;;;;;;5019403;28;20025;-88
2022/11/17 12:24:40;;;;;;;19.13;13.27;;;20.20;56.30;;;;;;5023396;28;20033;-87
2022/11/17 12:27:44;;;;;;;22.10;14.68;;;20.10;56.10;;;;;;5020022;28;20030;-87
2022/11/17 12:30:29;;;;;;;18.25;13.93;;;19.90;56.20;;;;;;5019490;28;20028;-87
2022/11/17 12:32:58;;;;;;;18.83;13.15;;;20.00;56.70;;;;;;5019740;28;20025;-87
2022/11/17 12:35:36;;;;;;;17.58;12.88;;;20.10;56.50;;;;;;5019416;28;20060;-88
2022/11/17 12:38:25;;;;;;;17.67;12.57;;;20.20;55.40;;;;;;5018867;28;20103;-86
2022/11/17 12:40:53;;;;;;;17.75;12.05;;;19.70;56.00;;;;;;5031111;28;20394;-87
2022/11/17 12:43:21;;;;;;;17.40;12.60;;;19.70;56.50;;;;;;5020083;28;20013;-87
2022/11/17 12:46:06;;;;;;;15.35;11.55;;;19.90;56.80;;;;;;5022355;28;20053;-88
2022/11/17 12:48:40;;;;;;;24.75;16.98;;;19.90;55.70;;;;;;5019754;28;20061;-86
2022/11/17 12:51:44;;;;;;;27.75;17.20;;;19.70;56.70;;;;;;5021233;28;20095;-86
2022/11/17 12:54:40;;;;;;;17.73;12.13;;;19.80;56.50;;;;;;4977610;28;20034;-86
2022/11/17 12:57:20;;;;;;;17.45;12.13;;;19.70;55.80;;;;;;4957808;28;20034;-86
2022/11/17 13:00:07;;;;;;;14.73;10.73;;;19.70;56.20;;;;;;4965166;28;20026;-89
2022/11/17 13:02:33;;;;;;;16.17;11.35;;;19.60;55.40;;;;;;4957875;28;20059;-87
2022/11/17 13:05:17;;;;;;;15.75;12.07;;;19.20;56.30;;;;;;4957972;28;20043;-88
2022/11/17 13:07:46;;;;;;;17.35;13.10;;;19.00;56.90;;;;;;4961038;28;20039;-86
2022/11/17 13:10:28;;;;;;;22.48;13.00;;;19.20;57.50;;;;;;4960276;28;20392;-86
2022/11/17 13:13:32;;;;;;;16.40;12.27;;;19.40;57.30;;;;;;4962795;28;20031;-87
2022/11/17 13:16:00;;;;;;;15.85;11.82;;;19.70;56.30;;;;;;4924447;29;20050;-87
2022/11/17 13:18:37;;;;;;;15.45;11.15;;;19.80;55.80;;;;;;4940883;29;20040;-87
2022/11/17 13:21:14;;;;;;;16.08;11.60;;;19.80;55.80;;;;;;4924647;28;20095;-87
2022/11/17 13:23:45;;;;;;;16.65;11.20;;;19.90;55.70;;;;;;4946793;29;20075;-86
2022/11/17 13:26:18;;;;;;;16.13;12.18;;;19.90;55.70;;;;;;4924068;29;20079;-87
2022/11/17 13:28:45;;;;;;;14.35;10.57;;;19.90;55.60;;;;;;4925043;29;20039;-89
2022/11/17 13:31:24;;;;;;;14.20;10.98;;;19.90;55.60;;;;;;4978710;28;20034;-88
2022/11/17 13:33:56;;;;;;;16.38;11.90;;;19.70;55.30;;;;;;4998252;28;20041;-87
2022/11/17 13:36:25;;;;;;;14.45;10.68;;;19.60;56.20;;;;;;4984880;28;20045;-87
2022/11/17 13:38:59;;;;;;;14.80;10.98;;;19.60;56.10;;;;;;5001836;28;20022;-87
2022/11/17 13:41:26;;;;;;;15.70;10.63;;;19.70;56.40;;;;;;4996743;28;20117;-86
2022/11/17 13:43:53;;;;;;;15.50;11.63;;;19.90;56.40;;;;;;5001402;28;20427;-87
2022/11/17 13:46:20;;;;;;;15.98;10.85;;;20.00;56.20;;;;;;5012869;28;20035;-88
2022/11/17 13:48:48;;;;;;;17.65;11.10;;;19.90;55.40;;;;;;5057719;28;20021;-86
2022/11/17 13:51:41;;;;;;;13.25;10.35;;;19.80;56.10;;;;;;5055513;28;20057;-86
2022/11/17 13:54:10;;;;;;;14.15;10.52;;;19.70;56.60;;;;;;5057239;28;20044;-86
2022/11/17 13:56:45;;;;;;;14.15;10.00;;;19.70;55.70;;;;;;5055469;28;20013;-86
2022/11/17 13:59:17;;;;;;;17.33;12.93;;;19.50;55.70;;;;;;5056085;28;20385;-85
2022/11/17 14:01:44;;;;;;;15.20;10.68;;;19.30;56.10;;;;;;5052478;28;20112;-83
2022/11/17 14:04:22;;;;;;;14.77;10.63;;;19.10;56.30;;;;;;5070569;28;20122;-87
2022/11/17 14:07:00;;;;;;;15.48;11.38;;;19.10;56.50;;;;;;5036714;28;20068;-86
2022/11/17 14:09:33;;;;;;;12.98;10.07;;;19.20;56.50;;;;;;5040075;28;20064;-87
2022/11/17 14:12:00;;;;;;;92.97;45.10;;;19.20;56.60;;;;;;5053683;28;20487;-87
2022/11/17 14:14:38;;;;;;;52.45;33.88;;;19.00;56.20;;;;;;5038109;28;20033;-87
2022/11/17 14:17:18;;;;;;;82.95;66.40;;;18.90;56.90;;;;;;5038140;28;20026;-86
2022/11/17 14:19:44;;;;;;;27.55;21.50;;;19.10;56.70;;;;;;5035380;28;20281;-86
2022/11/17 14:22:10;;;;;;;20.42;15.73;;;19.10;56.60;;;;;;5035347;28;20056;-91
2022/11/17 14:24:36;;;;;;;18.40;13.77;;;19.20;56.50;;;;;;5036210;28;20066;-94
2022/11/17 14:27:11;;;;;;;17.33;12.73;;;19.20;56.40;;;;;;5036819;28;20029;-86
2022/11/17 14:29:37;;;;;;;19.40;13.35;;;19.00;56.70;;;;;;5036082;28;20028;-88
2022/11/17 14:32:03;;;;;;;18.45;13.40;;;19.00;56.90;;;;;;5035669;28;20022;-87
2022/11/17 14:34:28;;;;;;;18.25;13.27;;;19.10;56.90;;;;;;5035371;28;20018;-86
2022/11/17 14:36:55;;;;;;;29.17;19.17;;;19.00;57.00;;;;;;5035699;28;20041;-86
2022/11/17 14:39:21;;;;;;;21.67;15.73;;;19.00;56.90;;;;;;5035553;28;20402;-86
2022/11/17 14:41:48;;;;;;;20.13;15.60;;;19.00;57.20;;;;;;5036294;28;20030;-88
2022/11/17 14:44:14;;;;;;;18.63;13.18;;;19.10;56.90;;;;;;5034999;28;20041;-86
2022/11/17 14:46:41;;;;;;;16.77;12.07;;;19.10;56.80;;;;;;5035942;28;20021;-94
2022/11/17 14:49:07;;;;;;;15.82;10.25;;;19.10;56.80;;;;;;5035875;28;20037;-87
2022/11/17 14:51:33;;;;;;;14.52;10.23;;;19.00;56.60;;;;;;5035839;28;20061;-87
2022/11/17 14:54:00;;;;;;;13.25;9.20;;;18.90;56.60;;;;;;5034872;28;20171;-87
2022/11/17 14:56:26;;;;;;;14.27;9.65;;;18.60;56.70;;;;;;5035540;28;20459;-87
2022/11/17 14:58:55;;;;;;;13.93;10.25;;;18.00;58.00;;;;;;5034861;28;20033;-87
2022/11/17 15:01:24;;;;;;;14.98;10.18;;;17.30;58.80;;;;;;5034688;28;20024;-88
2022/11/17 15:03:55;;;;;;;16.08;11.88;;;16.90;59.90;;;;;;5034559;28;20080;-86
2022/11/17 15:06:23;;;;;;;20.25;11.65;;;17.10;60.20;;;;;;5037342;28;20029;-87
2022/11/17 15:09:15;;;;;;;17.92;13.43;;;17.50;59.60;;;;;;5036092;28;20021;-89
2022/11/17 15:11:41;;;;;;;19.75;14.38;;;17.80;59.10;;;;;;5031183;28;20108;-89
2022/11/17 15:14:07;;;;;;;18.70;13.35;;;18.20;58.70;;;;;;5035299;28;20181;-87
2022/11/17 15:16:33;;;;;;;18.90;14.30;;;18.20;58.70;;;;;;5035740;28;20021;-88
2022/11/17 15:18:59;;;;;;;20.05;13.30;;;18.00;58.90;;;;;;5035151;28;20029;-89
2022/11/17 15:21:26;;;;;;;19.10;14.63;;;17.80;59.50;;;;;;5041997;28;20710;-88